sensor_id;sensor_type;location;lat;lon;timestamp;P1;durP1;ratioP1;P2;durP2;ratioP2
67442;SDS011;54311;51.726;5.154;2022-11-11T00:01:02;21.00;;;18.10;;
67442;SDS011;54311;51.726;5.154;2022-11-11T00:03:30;22.83;;;17.67;;
67442;SDS011;54311;51.726;5.154;2022-11-11T00:06:02;23.15;;;17.80;;
67442;SDS011;54311;51.726;5.154;2022-11-11T00:08:29;27.98;;;20.90;;
67442;SDS011;54311;51.726;5.154;2022-11-11T00:11:04;25.58;;;20.92;;
67442;SDS011;54311;51.726;5.154;2022-11-11T00:13:32;27.73;;;20.42;;
67442;SDS011;54311;51.726;5.154;2022-11-11T00:16:11;28.33;;;20.90;;
67442;SDS011;54311;51.726;5.154;2022-11-11T00:18:39;28.88;;;20.30;;
67442;SDS011;54311;51.726;5.154;2022-11-11T00:21:23;32.05;;;21.42;;
67442;SDS011;54311;51.726;5.154;2022-11-11T00:24:00;23.23;;;20.75;;
67442;SDS011;54311;51.726;5.154;2022-11-11T00:26:45;23.23;;;20.83;;
67442;SDS011;54311;51.726;5.154;2022-11-11T00:29:10;30.52;;;22.98;;
67442;SDS011;54311;51.726;5.154;2022-11-11T00:31:35;25.83;;;22.85;;
67442;SDS011;54311;51.726;5.154;2022-11-11T00:34:21;30.58;;;22.15;;
67442;SDS011;54311;51.726;5.154;2022-11-11T00:36:46;28.88;;;23.23;;
67442;SDS011;54311;51.726;5.154;2022-11-11T00:39:11;28.58;;;23.85;;
67442;SDS011;54311;51.726;5.154;2022-11-11T00:41:36;27.42;;;23.15;;
67442;SDS011;54311;51.726;5.154;2022-11-11T00:44:02;31.98;;;25.27;;
67442;SDS011;54311;51.726;5.154;2022-11-11T00:46:27;32.35;;;26.33;;
67442;SDS011;54311;51.726;5.154;2022-11-11T00:49:11;28.35;;;24.48;;
67442;SDS011;54311;51.726;5.154;2022-11-11T00:51:55;32.20;;;26.58;;
67442;SDS011;54311;51.726;5.154;2022-11-11T00:54:20;32.53;;;25.30;;
67442;SDS011;54311;51.726;5.154;2022-11-11T00:56:45;33.92;;;26.60;;
67442;SDS011;54311;51.726;5.154;2022-11-11T00:59:11;37.65;;;28.20;;
67442;SDS011;54311;51.726;5.154;2022-11-11T01:01:36;34.65;;;27.67;;
67442;SDS011;54311;51.726;5.154;2022-11-11T01:04:02;34.55;;;28.60;;
67442;SDS011;54311;51.726;5.154;2022-11-11T01:06:28;32.53;;;27.95;;
67442;SDS011;54311;51.726;5.154;2022-11-11T01:08:54;36.28;;;27.85;;
67442;SDS011;54311;51.726;5.154;2022-11-11T01:11:20;36.88;;;28.05;;
67442;SDS011;54311;51.726;5.154;2022-11-11T01:13:47;36.65;;;27.20;;
67442;SDS011;54311;51.726;5.154;2022-11-11T01:16:13;35.60;;;27.13;;
67442;SDS011;54311;51.726;5.154;2022-11-11T01:18:41;34.72;;;27.00;;
67442;SDS011;54311;51.726;5.154;2022-11-11T01:21:07;31.58;;;25.98;;
67442;SDS011;54311;51.726;5.154;2022-11-11T01:23:36;36.97;;;27.73;;
67442;SDS011;54311;51.726;5.154;2022-11-11T01:26:09;35.00;;;27.30;;
67442;SDS011;54311;51.726;5.154;2022-11-11T01:28:35;35.47;;;27.88;;
67442;SDS011;54311;51.726;5.154;2022-11-11T01:31:05;31.45;;;25.60;;
67442;SDS011;54311;51.726;5.154;2022-11-11T01:33:35;35.40;;;25.98;;
67442;SDS011;54311;51.726;5.154;2022-11-11T01:36:01;32.25;;;24.05;;
67442;SDS011;54311;51.726;5.154;2022-11-11T01:38:28;31.25;;;24.88;;
67442;SDS011;54311;51.726;5.154;2022-11-11T01:40:53;37.45;;;25.13;;
67442;SDS011;54311;51.726;5.154;2022-11-11T01:43:20;35.20;;;24.45;;
67442;SDS011;54311;51.726;5.154;2022-11-11T01:48:28;36.35;;;24.30;;
67442;SDS011;54311;51.726;5.154;2022-11-11T01:51:18;29.73;;;24.25;;
67442;SDS011;54311;51.726;5.154;2022-11-11T01:53:51;34.28;;;25.48;;
67442;SDS011;54311;51.726;5.154;2022-11-11T01:56:20;30.70;;;25.10;;
67442;SDS011;54311;51.726;5.154;2022-11-11T01:58:46;32.72;;;24.40;;
67442;SDS011;54311;51.726;5.154;2022-11-11T02:01:12;31.33;;;23.00;;
67442;SDS011;54311;51.726;5.154;2022-11-11T02:03:38;35.72;;;24.80;;
67442;SDS011;54311;51.726;5.154;2022-11-11T02:06:05;35.85;;;25.27;;
67442;SDS011;54311;51.726;5.154;2022-11-11T02:08:32;31.63;;;24.27;;
67442;SDS011;54311;51.726;5.154;2022-11-11T02:11:04;28.98;;;22.58;;
67442;SDS011;54311;51.726;5.154;2022-11-11T02:13:36;31.60;;;23.58;;
67442;SDS011;54311;51.726;5.154;2022-11-11T02:16:21;33.47;;;23.88;;
67442;SDS011;54311;51.726;5.154;2022-11-11T02:18:46;33.00;;;23.52;;
67442;SDS011;54311;51.726;5.154;2022-11-11T02:21:12;29.88;;;23.33;;
67442;SDS011;54311;51.726;5.154;2022-11-11T02:23:57;34.78;;;23.63;;
67442;SDS011;54311;51.726;5.154;2022-11-11T02:26:26;29.38;;;24.15;;
67442;SDS011;54311;51.726;5.154;2022-11-11T02:28:52;33.80;;;23.65;;
67442;SDS011;54311;51.726;5.154;2022-11-11T02:31:17;30.75;;;24.27;;
67442;SDS011;54311;51.726;5.154;2022-11-11T02:33:43;30.02;;;22.85;;
67442;SDS011;54311;51.726;5.154;2022-11-11T02:36:08;31.83;;;24.40;;
67442;SDS011;54311;51.726;5.154;2022-11-11T02:38:38;30.65;;;22.63;;
67442;SDS011;54311;51.726;5.154;2022-11-11T02:41:03;29.63;;;22.20;;
67442;SDS011;54311;51.726;5.154;2022-11-11T02:43:47;34.78;;;22.95;;
67442;SDS011;54311;51.726;5.154;2022-11-11T02:46:12;31.50;;;23.20;;
67442;SDS011;54311;51.726;5.154;2022-11-11T02:48:38;30.60;;;22.05;;
67442;SDS011;54311;51.726;5.154;2022-11-11T02:51:03;26.48;;;21.95;;
67442;SDS011;54311;51.726;5.154;2022-11-11T02:53:29;27.95;;;23.02;;
67442;SDS011;54311;51.726;5.154;2022-11-11T02:55:55;36.78;;;22.17;;
67442;SDS011;54311;51.726;5.154;2022-11-11T02:58:21;28.92;;;22.48;;
67442;SDS011;54311;51.726;5.154;2022-11-11T03:00:47;37.63;;;24.35;;
67442;SDS011;54311;51.726;5.154;2022-11-11T03:03:12;26.63;;;21.13;;
67442;SDS011;54311;51.726;5.154;2022-11-11T03:05:37;25.60;;;20.65;;
67442;SDS011;54311;51.726;5.154;2022-11-11T03:08:03;29.83;;;23.02;;
67442;SDS011;54311;51.726;5.154;2022-11-11T03:10:28;32.13;;;22.27;;
67442;SDS011;54311;51.726;5.154;2022-11-11T03:12:54;34.92;;;21.52;;
67442;SDS011;54311;51.726;5.154;2022-11-11T03:15:20;28.98;;;21.80;;
67442;SDS011;54311;51.726;5.154;2022-11-11T03:17:45;34.78;;;24.92;;
67442;SDS011;54311;51.726;5.154;2022-11-11T03:20:12;31.13;;;22.33;;
67442;SDS011;54311;51.726;5.154;2022-11-11T03:23:04;26.30;;;22.52;;
67442;SDS011;54311;51.726;5.154;2022-11-11T03:25:36;33.78;;;25.17;;
67442;SDS011;54311;51.726;5.154;2022-11-11T03:28:06;32.30;;;23.98;;
67442;SDS011;54311;51.726;5.154;2022-11-11T03:30:36;32.70;;;24.27;;
67442;SDS011;54311;51.726;5.154;2022-11-11T03:33:02;30.70;;;23.90;;
67442;SDS011;54311;51.726;5.154;2022-11-11T03:35:28;32.67;;;22.92;;
67442;SDS011;54311;51.726;5.154;2022-11-11T03:37:54;31.80;;;24.13;;
67442;SDS011;54311;51.726;5.154;2022-11-11T03:40:37;31.88;;;23.63;;
67442;SDS011;54311;51.726;5.154;2022-11-11T03:43:03;30.00;;;23.02;;
67442;SDS011;54311;51.726;5.154;2022-11-11T03:45:28;33.75;;;25.02;;
67442;SDS011;54311;51.726;5.154;2022-11-11T03:47:53;34.30;;;24.35;;
67442;SDS011;54311;51.726;5.154;2022-11-11T03:50:19;31.65;;;24.63;;
67442;SDS011;54311;51.726;5.154;2022-11-11T03:52:45;33.13;;;21.73;;
67442;SDS011;54311;51.726;5.154;2022-11-11T03:55:11;30.77;;;22.58;;
67442;SDS011;54311;51.726;5.154;2022-11-11T03:57:43;32.40;;;22.98;;
67442;SDS011;54311;51.726;5.154;2022-11-11T04:00:10;27.58;;;21.45;;
67442;SDS011;54311;51.726;5.154;2022-11-11T04:02:36;29.80;;;21.92;;
67442;SDS011;54311;51.726;5.154;2022-11-11T04:05:20;29.15;;;20.90;;
67442;SDS011;54311;51.726;5.154;2022-11-11T04:08:04;28.27;;;21.75;;
67442;SDS011;54311;51.726;5.154;2022-11-11T04:10:48;33.50;;;21.70;;
67442;SDS011;54311;51.726;5.154;2022-11-11T04:13:13;35.70;;;21.80;;
67442;SDS011;54311;51.726;5.154;2022-11-11T04:15:57;29.35;;;22.85;;
67442;SDS011;54311;51.726;5.154;2022-11-11T04:18:32;31.10;;;22.63;;
67442;SDS011;54311;51.726;5.154;2022-11-11T04:21:17;24.65;;;21.33;;
67442;SDS011;54311;51.726;5.154;2022-11-11T04:24:00;31.60;;;21.40;;
67442;SDS011;54311;51.726;5.154;2022-11-11T04:26:26;26.00;;;21.92;;
67442;SDS011;54311;51.726;5.154;2022-11-11T04:28:51;26.35;;;21.00;;
67442;SDS011;54311;51.726;5.154;2022-11-11T04:31:35;29.08;;;20.73;;
67442;SDS011;54311;51.726;5.154;2022-11-11T04:34:01;28.60;;;21.60;;
67442;SDS011;54311;51.726;5.154;2022-11-11T04:36:26;31.92;;;22.67;;
67442;SDS011;54311;51.726;5.154;2022-11-11T04:38:51;29.17;;;22.33;;
67442;SDS011;54311;51.726;5.154;2022-11-11T04:41:35;27.33;;;21.88;;
67442;SDS011;54311;51.726;5.154;2022-11-11T04:44:01;23.77;;;21.20;;
67442;SDS011;54311;51.726;5.154;2022-11-11T04:46:45;28.52;;;22.23;;
67442;SDS011;54311;51.726;5.154;2022-11-11T04:49:10;29.90;;;22.35;;
67442;SDS011;54311;51.726;5.154;2022-11-11T04:51:36;29.13;;;21.52;;
67442;SDS011;54311;51.726;5.154;2022-11-11T04:54:20;25.50;;;22.40;;
67442;SDS011;54311;51.726;5.154;2022-11-11T04:56:45;31.40;;;23.20;;
67442;SDS011;54311;51.726;5.154;2022-11-11T04:59:17;31.63;;;24.95;;
67442;SDS011;54311;51.726;5.154;2022-11-11T05:01:44;29.73;;;22.92;;
67442;SDS011;54311;51.726;5.154;2022-11-11T05:04:29;36.88;;;25.40;;
67442;SDS011;54311;51.726;5.154;2022-11-11T05:06:54;32.92;;;24.10;;
67442;SDS011;54311;51.726;5.154;2022-11-11T05:09:38;26.67;;;22.80;;
67442;SDS011;54311;51.726;5.154;2022-11-11T05:12:03;32.60;;;24.52;;
67442;SDS011;54311;51.726;5.154;2022-11-11T05:14:29;30.15;;;24.27;;
67442;SDS011;54311;51.726;5.154;2022-11-11T05:17:12;33.42;;;24.08;;
67442;SDS011;54311;51.726;5.154;2022-11-11T05:19:56;31.27;;;24.40;;
67442;SDS011;54311;51.726;5.154;2022-11-11T05:22:41;30.52;;;24.60;;
67442;SDS011;54311;51.726;5.154;2022-11-11T05:25:07;31.83;;;24.08;;
67442;SDS011;54311;51.726;5.154;2022-11-11T05:27:49;30.55;;;23.27;;
67442;SDS011;54311;51.726;5.154;2022-11-11T05:30:14;35.72;;;24.60;;
67442;SDS011;54311;51.726;5.154;2022-11-11T05:32:41;32.17;;;24.02;;
67442;SDS011;54311;51.726;5.154;2022-11-11T05:35:07;31.15;;;24.58;;
67442;SDS011;54311;51.726;5.154;2022-11-11T05:37:33;33.88;;;23.83;;
67442;SDS011;54311;51.726;5.154;2022-11-11T05:39:58;29.60;;;23.33;;
67442;SDS011;54311;51.726;5.154;2022-11-11T05:42:24;32.08;;;25.17;;
67442;SDS011;54311;51.726;5.154;2022-11-11T05:44:49;32.67;;;22.77;;
67442;SDS011;54311;51.726;5.154;2022-11-11T05:47:14;35.53;;;24.10;;
67442;SDS011;54311;51.726;5.154;2022-11-11T05:49:40;32.83;;;24.80;;
67442;SDS011;54311;51.726;5.154;2022-11-11T05:52:05;34.40;;;25.58;;
67442;SDS011;54311;51.726;5.154;2022-11-11T05:54:32;28.75;;;23.30;;
67442;SDS011;54311;51.726;5.154;2022-11-11T05:56:57;30.77;;;23.50;;
67442;SDS011;54311;51.726;5.154;2022-11-11T05:59:22;31.38;;;23.52;;
67442;SDS011;54311;51.726;5.154;2022-11-11T06:01:48;31.40;;;24.00;;
67442;SDS011;54311;51.726;5.154;2022-11-11T06:04:13;31.65;;;22.98;;
67442;SDS011;54311;51.726;5.154;2022-11-11T06:06:39;31.15;;;23.05;;
67442;SDS011;54311;51.726;5.154;2022-11-11T06:09:04;39.28;;;24.13;;
67442;SDS011;54311;51.726;5.154;2022-11-11T06:11:30;28.95;;;23.45;;
67442;SDS011;54311;51.726;5.154;2022-11-11T06:13:55;31.70;;;23.17;;
67442;SDS011;54311;51.726;5.154;2022-11-11T06:16:21;28.27;;;22.50;;
67442;SDS011;54311;51.726;5.154;2022-11-11T06:18:47;32.35;;;23.92;;
67442;SDS011;54311;51.726;5.154;2022-11-11T06:21:13;37.13;;;23.90;;
67442;SDS011;54311;51.726;5.154;2022-11-11T06:23:38;36.65;;;23.77;;
67442;SDS011;54311;51.726;5.154;2022-11-11T06:26:04;34.13;;;25.63;;
67442;SDS011;54311;51.726;5.154;2022-11-11T06:31:04;32.45;;;23.70;;
67442;SDS011;54311;51.726;5.154;2022-11-11T06:33:31;35.92;;;25.73;;
67442;SDS011;54311;51.726;5.154;2022-11-11T06:35:57;32.28;;;24.95;;
67442;SDS011;54311;51.726;5.154;2022-11-11T06:38:22;36.28;;;26.40;;
67442;SDS011;54311;51.726;5.154;2022-11-11T06:40:47;39.65;;;26.17;;
67442;SDS011;54311;51.726;5.154;2022-11-11T06:43:13;34.10;;;25.00;;
67442;SDS011;54311;51.726;5.154;2022-11-11T06:45:38;33.53;;;25.92;;
67442;SDS011;54311;51.726;5.154;2022-11-11T06:48:04;32.38;;;25.42;;
67442;SDS011;54311;51.726;5.154;2022-11-11T06:50:33;33.67;;;24.95;;
67442;SDS011;54311;51.726;5.154;2022-11-11T06:53:03;34.80;;;26.20;;
67442;SDS011;54311;51.726;5.154;2022-11-11T06:55:29;36.10;;;24.05;;
67442;SDS011;54311;51.726;5.154;2022-11-11T06:57:54;34.53;;;25.80;;
67442;SDS011;54311;51.726;5.154;2022-11-11T07:00:20;33.75;;;25.73;;
67442;SDS011;54311;51.726;5.154;2022-11-11T07:02:45;32.70;;;24.50;;
67442;SDS011;54311;51.726;5.154;2022-11-11T07:05:11;34.00;;;24.48;;
67442;SDS011;54311;51.726;5.154;2022-11-11T07:07:37;29.17;;;23.67;;
67442;SDS011;54311;51.726;5.154;2022-11-11T07:10:02;35.45;;;25.95;;
67442;SDS011;54311;51.726;5.154;2022-11-11T07:12:31;34.83;;;23.48;;
67442;SDS011;54311;51.726;5.154;2022-11-11T07:14:56;31.63;;;23.52;;
67442;SDS011;54311;51.726;5.154;2022-11-11T07:17:21;34.53;;;24.77;;
67442;SDS011;54311;51.726;5.154;2022-11-11T07:19:47;29.63;;;22.95;;
67442;SDS011;54311;51.726;5.154;2022-11-11T07:22:12;33.85;;;26.42;;
67442;SDS011;54311;51.726;5.154;2022-11-11T07:24:37;28.75;;;23.50;;
67442;SDS011;54311;51.726;5.154;2022-11-11T07:27:03;32.10;;;23.67;;
67442;SDS011;54311;51.726;5.154;2022-11-11T07:29:28;31.05;;;22.55;;
67442;SDS011;54311;51.726;5.154;2022-11-11T07:31:53;40.75;;;25.45;;
67442;SDS011;54311;51.726;5.154;2022-11-11T07:34:19;25.98;;;21.70;;
67442;SDS011;54311;51.726;5.154;2022-11-11T07:36:44;24.00;;;20.05;;
67442;SDS011;54311;51.726;5.154;2022-11-11T07:39:09;29.52;;;21.02;;
67442;SDS011;54311;51.726;5.154;2022-11-11T07:41:35;23.17;;;19.23;;
67442;SDS011;54311;51.726;5.154;2022-11-11T07:44:00;27.83;;;20.42;;
67442;SDS011;54311;51.726;5.154;2022-11-11T07:46:26;27.90;;;20.60;;
67442;SDS011;54311;51.726;5.154;2022-11-11T07:48:51;20.58;;;18.38;;
67442;SDS011;54311;51.726;5.154;2022-11-11T07:51:17;24.27;;;20.27;;
67442;SDS011;54311;51.726;5.154;2022-11-11T07:53:42;22.85;;;19.65;;
67442;SDS011;54311;51.726;5.154;2022-11-11T07:56:07;23.10;;;19.95;;
67442;SDS011;54311;51.726;5.154;2022-11-11T07:58:33;24.88;;;18.33;;
67442;SDS011;54311;51.726;5.154;2022-11-11T08:00:58;23.58;;;19.08;;
67442;SDS011;54311;51.726;5.154;2022-11-11T08:03:26;24.67;;;18.63;;
67442;SDS011;54311;51.726;5.154;2022-11-11T08:05:52;25.17;;;19.23;;
67442;SDS011;54311;51.726;5.154;2022-11-11T08:08:19;28.70;;;20.25;;
67442;SDS011;54311;51.726;5.154;2022-11-11T08:10:49;24.52;;;19.00;;
67442;SDS011;54311;51.726;5.154;2022-11-11T08:13:14;22.17;;;19.88;;
67442;SDS011;54311;51.726;5.154;2022-11-11T08:15:58;21.63;;;18.20;;
67442;SDS011;54311;51.726;5.154;2022-11-11T08:18:23;27.52;;;20.92;;
67442;SDS011;54311;51.726;5.154;2022-11-11T08:20:49;27.42;;;19.63;;
67442;SDS011;54311;51.726;5.154;2022-11-11T08:23:14;25.15;;;19.02;;
67442;SDS011;54311;51.726;5.154;2022-11-11T08:25:45;23.48;;;18.83;;
67442;SDS011;54311;51.726;5.154;2022-11-11T08:28:11;21.27;;;19.08;;
67442;SDS011;54311;51.726;5.154;2022-11-11T08:30:36;24.08;;;18.63;;
67442;SDS011;54311;51.726;5.154;2022-11-11T08:33:03;19.95;;;17.92;;
67442;SDS011;54311;51.726;5.154;2022-11-11T08:35:29;27.02;;;17.65;;
67442;SDS011;54311;51.726;5.154;2022-11-11T08:38:05;24.60;;;18.85;;
67442;SDS011;54311;51.726;5.154;2022-11-11T08:40:30;24.52;;;19.00;;
67442;SDS011;54311;51.726;5.154;2022-11-11T08:42:56;26.48;;;18.25;;
67442;SDS011;54311;51.726;5.154;2022-11-11T08:45:22;21.50;;;18.58;;
67442;SDS011;54311;51.726;5.154;2022-11-11T08:47:47;22.05;;;18.02;;
67442;SDS011;54311;51.726;5.154;2022-11-11T08:50:12;24.52;;;19.80;;
67442;SDS011;54311;51.726;5.154;2022-11-11T08:52:43;23.67;;;20.52;;
67442;SDS011;54311;51.726;5.154;2022-11-11T08:55:10;24.95;;;22.27;;
67442;SDS011;54311;51.726;5.154;2022-11-11T08:57:35;25.55;;;21.85;;
67442;SDS011;54311;51.726;5.154;2022-11-11T09:00:00;22.40;;;20.00;;
67442;SDS011;54311;51.726;5.154;2022-11-11T09:02:26;22.80;;;20.40;;
67442;SDS011;54311;51.726;5.154;2022-11-11T09:04:52;24.88;;;22.05;;
67442;SDS011;54311;51.726;5.154;2022-11-11T09:07:17;30.80;;;23.45;;
67442;SDS011;54311;51.726;5.154;2022-11-11T09:09:42;27.40;;;23.30;;
67442;SDS011;54311;51.726;5.154;2022-11-11T09:12:07;26.80;;;23.65;;
67442;SDS011;54311;51.726;5.154;2022-11-11T09:14:33;27.85;;;22.08;;
67442;SDS011;54311;51.726;5.154;2022-11-11T09:16:58;26.73;;;23.33;;
67442;SDS011;54311;51.726;5.154;2022-11-11T09:19:24;25.65;;;23.05;;
67442;SDS011;54311;51.726;5.154;2022-11-11T09:21:50;27.75;;;23.05;;
67442;SDS011;54311;51.726;5.154;2022-11-11T09:24:16;30.60;;;25.55;;
67442;SDS011;54311;51.726;5.154;2022-11-11T09:26:42;26.02;;;22.55;;
67442;SDS011;54311;51.726;5.154;2022-11-11T09:29:07;30.25;;;24.67;;
67442;SDS011;54311;51.726;5.154;2022-11-11T09:31:32;29.90;;;23.25;;
67442;SDS011;54311;51.726;5.154;2022-11-11T09:33:58;30.85;;;24.75;;
67442;SDS011;54311;51.726;5.154;2022-11-11T09:36:23;27.65;;;23.63;;
67442;SDS011;54311;51.726;5.154;2022-11-11T09:38:48;29.45;;;25.23;;
67442;SDS011;54311;51.726;5.154;2022-11-11T09:41:18;32.63;;;23.35;;
67442;SDS011;54311;51.726;5.154;2022-11-11T09:46:21;27.08;;;24.23;;
67442;SDS011;54311;51.726;5.154;2022-11-11T09:54:00;30.08;;;23.85;;
67442;SDS011;54311;51.726;5.154;2022-11-11T09:56:29;35.45;;;25.38;;
67442;SDS011;54311;51.726;5.154;2022-11-11T09:58:57;31.55;;;24.88;;
67442;SDS011;54311;51.726;5.154;2022-11-11T10:01:24;35.15;;;25.52;;
67442;SDS011;54311;51.726;5.154;2022-11-11T10:03:59;34.35;;;26.05;;
67442;SDS011;54311;51.726;5.154;2022-11-11T10:06:30;33.95;;;27.48;;
67442;SDS011;54311;51.726;5.154;2022-11-11T10:14:21;30.40;;;26.83;;
67442;SDS011;54311;51.726;5.154;2022-11-11T10:16:50;34.15;;;27.73;;
67442;SDS011;54311;51.726;5.154;2022-11-11T10:21:53;38.20;;;29.45;;
67442;SDS011;54311;51.726;5.154;2022-11-11T10:24:32;37.60;;;28.65;;
67442;SDS011;54311;51.726;5.154;2022-11-11T10:27:00;31.63;;;27.55;;
67442;SDS011;54311;51.726;5.154;2022-11-11T10:29:35;36.50;;;28.65;;
67442;SDS011;54311;51.726;5.154;2022-11-11T10:32:10;37.70;;;30.65;;
67442;SDS011;54311;51.726;5.154;2022-11-11T10:34:40;39.08;;;31.60;;
67442;SDS011;54311;51.726;5.154;2022-11-11T10:37:14;38.47;;;30.58;;
67442;SDS011;54311;51.726;5.154;2022-11-11T10:42:26;34.25;;;29.75;;
67442;SDS011;54311;51.726;5.154;2022-11-11T10:44:53;36.53;;;30.55;;
67442;SDS011;54311;51.726;5.154;2022-11-11T10:52:55;36.13;;;29.30;;
67442;SDS011;54311;51.726;5.154;2022-11-11T11:01:15;30.30;;;26.98;;
67442;SDS011;54311;51.726;5.154;2022-11-11T11:03:47;31.25;;;27.58;;
67442;SDS011;54311;51.726;5.154;2022-11-11T11:08:46;29.42;;;25.95;;
67442;SDS011;54311;51.726;5.154;2022-11-11T11:11:35;30.40;;;26.17;;
67442;SDS011;54311;51.726;5.154;2022-11-11T11:14:29;29.50;;;24.15;;
67442;SDS011;54311;51.726;5.154;2022-11-11T11:16:58;32.25;;;23.70;;
67442;SDS011;54311;51.726;5.154;2022-11-11T11:19:26;25.45;;;22.45;;
67442;SDS011;54311;51.726;5.154;2022-11-11T11:26:51;26.05;;;21.98;;
67442;SDS011;54311;51.726;5.154;2022-11-11T11:32:10;23.42;;;20.63;;
67442;SDS011;54311;51.726;5.154;2022-11-11T11:34:44;22.98;;;19.52;;
67442;SDS011;54311;51.726;5.154;2022-11-11T11:37:10;26.73;;;20.42;;
67442;SDS011;54311;51.726;5.154;2022-11-11T11:39:36;21.23;;;19.02;;
67442;SDS011;54311;51.726;5.154;2022-11-11T11:42:03;21.55;;;19.27;;
67442;SDS011;54311;51.726;5.154;2022-11-11T11:44:29;20.15;;;18.10;;
67442;SDS011;54311;51.726;5.154;2022-11-11T11:55:27;22.88;;;16.23;;
67442;SDS011;54311;51.726;5.154;2022-11-11T11:58:02;19.48;;;15.88;;
67442;SDS011;54311;51.726;5.154;2022-11-11T12:00:37;17.48;;;14.10;;
67442;SDS011;54311;51.726;5.154;2022-11-11T12:06:19;17.48;;;14.90;;
67442;SDS011;54311;51.726;5.154;2022-11-11T12:11:35;15.95;;;13.68;;
67442;SDS011;54311;51.726;5.154;2022-11-11T12:14:32;18.42;;;14.68;;
67442;SDS011;54311;51.726;5.154;2022-11-11T12:20:07;15.48;;;13.27;;
67442;SDS011;54311;51.726;5.154;2022-11-11T12:30:48;15.15;;;11.27;;
67442;SDS011;54311;51.726;5.154;2022-11-11T12:36:15;12.98;;;11.25;;
67442;SDS011;54311;51.726;5.154;2022-11-11T12:42:13;11.90;;;10.77;;
67442;SDS011;54311;51.726;5.154;2022-11-11T12:44:40;12.65;;;9.95;;
67442;SDS011;54311;51.726;5.154;2022-11-11T12:50:37;11.38;;;10.27;;
67442;SDS011;54311;51.726;5.154;2022-11-11T13:01:27;12.13;;;9.10;;
67442;SDS011;54311;51.726;5.154;2022-11-11T13:07:12;12.10;;;8.77;;
67442;SDS011;54311;51.726;5.154;2022-11-11T13:10:02;9.25;;;8.40;;
67442;SDS011;54311;51.726;5.154;2022-11-11T13:12:35;8.38;;;7.55;;
67442;SDS011;54311;51.726;5.154;2022-11-11T13:15:16;12.05;;;8.80;;
67442;SDS011;54311;51.726;5.154;2022-11-11T13:17:46;12.02;;;8.93;;
67442;SDS011;54311;51.726;5.154;2022-11-11T13:23:10;9.88;;;8.38;;
67442;SDS011;54311;51.726;5.154;2022-11-11T13:25:38;9.38;;;8.20;;
67442;SDS011;54311;51.726;5.154;2022-11-11T13:28:13;8.50;;;7.38;;
67442;SDS011;54311;51.726;5.154;2022-11-11T13:31:02;9.32;;;7.35;;
67442;SDS011;54311;51.726;5.154;2022-11-11T13:33:38;10.43;;;7.10;;
67442;SDS011;54311;51.726;5.154;2022-11-11T13:36:06;12.38;;;8.77;;
67442;SDS011;54311;51.726;5.154;2022-11-11T13:38:37;12.00;;;7.57;;
67442;SDS011;54311;51.726;5.154;2022-11-11T13:41:08;8.43;;;7.63;;
67442;SDS011;54311;51.726;5.154;2022-11-11T13:43:40;7.45;;;6.80;;
67442;SDS011;54311;51.726;5.154;2022-11-11T13:46:11;10.77;;;7.43;;
67442;SDS011;54311;51.726;5.154;2022-11-11T13:48:48;9.48;;;7.43;;
67442;SDS011;54311;51.726;5.154;2022-11-11T13:53:47;6.95;;;6.43;;
67442;SDS011;54311;51.726;5.154;2022-11-11T13:56:55;8.27;;;7.15;;
67442;SDS011;54311;51.726;5.154;2022-11-11T13:59:03;7.63;;;6.57;;
67442;SDS011;54311;51.726;5.154;2022-11-11T14:01:32;7.88;;;6.43;;
67442;SDS011;54311;51.726;5.154;2022-11-11T14:04:01;6.70;;;6.07;;
67442;SDS011;54311;51.726;5.154;2022-11-11T14:09:02;13.10;;;7.45;;
67442;SDS011;54311;51.726;5.154;2022-11-11T14:11:29;7.53;;;6.82;;
67442;SDS011;54311;51.726;5.154;2022-11-11T14:13:56;8.52;;;7.28;;
67442;SDS011;54311;51.726;5.154;2022-11-11T14:24:53;8.27;;;7.50;;
67442;SDS011;54311;51.726;5.154;2022-11-11T14:27:24;9.35;;;7.35;;
67442;SDS011;54311;51.726;5.154;2022-11-11T14:29:54;21.17;;;7.60;;
67442;SDS011;54311;51.726;5.154;2022-11-11T14:37:51;7.80;;;6.95;;
67442;SDS011;54311;51.726;5.154;2022-11-11T14:40:26;7.80;;;6.75;;
67442;SDS011;54311;51.726;5.154;2022-11-11T14:42:53;7.10;;;6.50;;
67442;SDS011;54311;51.726;5.154;2022-11-11T14:47:47;6.70;;;6.10;;
67442;SDS011;54311;51.726;5.154;2022-11-11T14:50:55;9.27;;;6.30;;
67442;SDS011;54311;51.726;5.154;2022-11-11T14:53:07;7.43;;;6.40;;
67442;SDS011;54311;51.726;5.154;2022-11-11T14:55:37;7.82;;;6.38;;
67442;SDS011;54311;51.726;5.154;2022-11-11T15:05:43;14.50;;;6.40;;
67442;SDS011;54311;51.726;5.154;2022-11-11T15:19:22;6.32;;;5.80;;
67442;SDS011;54311;51.726;5.154;2022-11-11T15:27:22;12.10;;;5.90;;
67442;SDS011;54311;51.726;5.154;2022-11-11T15:30:10;10.27;;;6.50;;
67442;SDS011;54311;51.726;5.154;2022-11-11T15:35:36;6.75;;;6.20;;
67442;SDS011;54311;51.726;5.154;2022-11-11T15:38:10;6.57;;;5.97;;
67442;SDS011;54311;51.726;5.154;2022-11-11T15:40:41;10.20;;;8.40;;
67442;SDS011;54311;51.726;5.154;2022-11-11T15:43:17;20.33;;;14.35;;
67442;SDS011;54311;51.726;5.154;2022-11-11T15:45:45;21.13;;;15.35;;
67442;SDS011;54311;51.726;5.154;2022-11-11T15:48:15;23.27;;;13.63;;
67442;SDS011;54311;51.726;5.154;2022-11-11T15:50:43;12.98;;;9.60;;
67442;SDS011;54311;51.726;5.154;2022-11-11T15:53:10;9.80;;;8.40;;
67442;SDS011;54311;51.726;5.154;2022-11-11T15:55:36;12.70;;;11.35;;
67442;SDS011;54311;51.726;5.154;2022-11-11T15:58:10;31.95;;;16.92;;
67442;SDS011;54311;51.726;5.154;2022-11-11T16:00:38;33.97;;;13.98;;
67442;SDS011;54311;51.726;5.154;2022-11-11T16:03:04;21.10;;;13.35;;
67442;SDS011;54311;51.726;5.154;2022-11-11T16:05:30;15.07;;;10.23;;
67442;SDS011;54311;51.726;5.154;2022-11-11T16:08:01;13.20;;;10.25;;
67442;SDS011;54311;51.726;5.154;2022-11-11T16:10:31;12.77;;;8.63;;
67442;SDS011;54311;51.726;5.154;2022-11-11T16:13:18;15.65;;;9.93;;
67442;SDS011;54311;51.726;5.154;2022-11-11T16:15:46;15.07;;;7.55;;
67442;SDS011;54311;51.726;5.154;2022-11-11T16:18:20;8.77;;;7.95;;
67442;SDS011;54311;51.726;5.154;2022-11-11T16:20:48;9.07;;;8.23;;
67442;SDS011;54311;51.726;5.154;2022-11-11T16:23:18;9.00;;;8.07;;
67442;SDS011;54311;51.726;5.154;2022-11-11T16:25:45;10.82;;;9.60;;
67442;SDS011;54311;51.726;5.154;2022-11-11T16:28:11;10.65;;;9.52;;
67442;SDS011;54311;51.726;5.154;2022-11-11T16:30:37;11.20;;;10.07;;
67442;SDS011;54311;51.726;5.154;2022-11-11T16:33:03;13.63;;;10.13;;
67442;SDS011;54311;51.726;5.154;2022-11-11T16:35:30;12.20;;;9.68;;
67442;SDS011;54311;51.726;5.154;2022-11-11T16:38:00;9.70;;;7.80;;
67442;SDS011;54311;51.726;5.154;2022-11-11T16:51:04;13.80;;;12.50;;
67442;SDS011;54311;51.726;5.154;2022-11-11T16:53:32;11.60;;;10.40;;
67442;SDS011;54311;51.726;5.154;2022-11-11T16:56:03;11.70;;;10.60;;
67442;SDS011;54311;51.726;5.154;2022-11-11T16:58:29;11.52;;;10.30;;
67442;SDS011;54311;51.726;5.154;2022-11-11T17:00:59;12.38;;;11.10;;
67442;SDS011;54311;51.726;5.154;2022-11-11T17:03:26;17.83;;;12.52;;
67442;SDS011;54311;51.726;5.154;2022-11-11T17:05:53;13.15;;;11.85;;
67442;SDS011;54311;51.726;5.154;2022-11-11T17:11:41;12.43;;;11.07;;
67442;SDS011;54311;51.726;5.154;2022-11-11T17:14:05;12.85;;;11.38;;
67442;SDS011;54311;51.726;5.154;2022-11-11T17:16:30;14.65;;;10.57;;